Share

Nome, AK

BA Airport (KAKNOME7) Elev 10 ft | 64.51 °N, 165.45 °W | Change Station

Current weather conditions updated 1 minute ago

Scattered Clouds
Scattered Clouds
35.0 °F
Feels Like 31 °F
N
5.0
Wind Variable Wind from NNW
Gusts 27.0 mph
Sunrise 7:12 AM
Sunset 10:50 PM
Moon Waning Gibbous

Today is forecast to be Cooler than yesterday.

Pressure 29.55 in
Visibility 10.0 miles
Clouds Few 8000 ft
Scattered Clouds 21000 ft
Windchill 31 °F
Dew Point 31 °F
Humidity 84%
Rainfall 0.00 in
Snow Depth Not available.
UV 0 out of 16
Pollen Not available.
Air Quality Not available.
Flu Activity Sporadic
METAR PAOM 190853Z 35005KT 10SM FEW080 SCT210 01/M02 A2954 RMK SLP004 T00111017 400611017 51012 VIA AUTODIAL

More Conditions Fewer Conditions

Pressure 29.55 in
Visibility 10.0 miles
Clouds Few 8000 ft
Scattered Clouds 21000 ft
Windchill 31 °F
Dew Point 31 °F
Humidity 84%
Rainfall 0.00 in
Snow Depth Not available.
UV 0 out of 16
Pollen Not available.
Air Quality Not available.
Flu Activity Sporadic
METAR PAOM 190853Z 35005KT 10SM FEW080 SCT210 01/M02 A2954 RMK SLP004 T00111017 400611017 51012 VIA AUTODIAL

More Conditions Fewer Conditions

10-Day Weather Forecast

Almanac

Astronomy

Apr. 19, 2014 Rise Set
Actual Time 7:12 AM AKDT 10:50 PM AKDT
Civil Twilight 6:13 AM AKDT 11:50 PM AKDT
Nautical Twilight 4:38 AM AKDT 1:29 AM AKDT
Astronomical Twilight Sun does not rise Sun does not rise
Moon 3:43 AM AKDT 9:45 AM AKDT
Length of Visible Light 17h 36m
Length of Day
15h 37m
Tomorrow will be 6m 48s longer.
Waning Gibbous, 81% of the Moon is Illuminated
Today
Waning Gibbous
Apr 22
Last Quarter
Apr 29
New
May 6
First Quarter
May 14
Full

Today's Extremes

State Highs State Lows

Community

  • Sunset Silhouettes
    Sunset Silhouettes
  • FL sunset Perico Isle
    FL sunset Perico Isle
  • Cloudy spring view
    Cloudy spring view
  • Old barn
    Old barn
  • What's for Lunch?
    What's for Lunch?

WunderPhotos

Upload Photos

1,702,668 photos uploaded!

WunderBlogs® & News

Nearby

Snow Depth

Station Depth Elevation
Rocky Point 5 in 500 ft
Pargon Creek 2 in 300 ft
Gobblers Knob 8 in 2030 ft
Coldfoot 24 in 1040 ft
Susitna Valley High 18 in 375 ft

Coastal Water Temperatures

Place Temperature
No Stations Reporting

Earthquake Activity

City Distance Mag. Time & Date
No recent earthquake activity has been reported nearby.
Minimum magnitude displayed is 2.5.

Nearby Weather Stations

Station Location Temp. Windchill Dew Point Humidity Wind Precip. Elev Updated Type
BA Airport, Nome, AK 35.0 °F 31 °F 31 °F 84% NNW  at  5.0 mph 0.00 in / hr 10 ft 1:10 AM AKDT Normal
Dexter, Nome, AK 32.2 °F 32 °F 27 °F 81% NE  at  1.0 mph 0.00 in / hr 56 ft 1:10 AM AKDT Normal
Banner Creek, Nome, AK 30.4 °F 30 °F 28 °F 91% NE  at  0.0 mph 0.00 in / hr 197 ft 1:10 AM AKDT Normal

Show More Stations Show Fewer Stations

What do you think?

We're not finished. Please let us know what you like, what you don't like, and what you are still missing.